createdAt,value
2023-05-24T00:02:23.943Z,99.90
2023-05-24T00:04:53.029Z,99.90
2023-05-24T00:07:20.294Z,99.90
2023-05-24T00:09:47.253Z,99.90
2023-05-24T00:12:14.174Z,99.90
2023-05-24T00:14:41.073Z,99.90
2023-05-24T00:17:07.987Z,99.90
2023-05-24T00:19:38.486Z,99.90
2023-05-24T00:22:05.643Z,99.90
2023-05-24T00:24:32.620Z,99.90
2023-05-24T00:26:59.490Z,99.90
2023-05-24T00:29:26.358Z,99.90
2023-05-24T00:31:53.284Z,99.90
2023-05-24T00:34:20.442Z,99.90
2023-05-24T00:36:47.347Z,99.90
2023-05-24T00:39:14.231Z,99.90
2023-05-24T00:41:41.146Z,99.90
2023-05-24T00:44:11.006Z,99.90
2023-05-24T00:46:38.381Z,99.90
2023-05-24T00:49:05.567Z,99.90
2023-05-24T00:51:33.980Z,99.90
2023-05-24T00:54:01.330Z,99.90
2023-05-24T00:56:28.686Z,99.90
2023-05-24T00:58:56.411Z,99.90
2023-05-24T01:01:26.707Z,99.90
2023-05-24T01:03:54.508Z,99.90
2023-05-24T01:06:23.584Z,99.90
2023-05-24T01:09:11.993Z,99.90
2023-05-24T01:12:17.030Z,99.90
2023-05-24T01:15:21.451Z,99.90
2023-05-24T01:18:01.774Z,99.90
2023-05-24T01:20:34.369Z,99.90
2023-05-24T01:23:14.885Z,99.90
2023-05-24T01:25:51.058Z,99.90
2023-05-24T01:28:18.797Z,99.90
2023-05-24T01:30:46.547Z,99.90
2023-05-24T01:33:13.855Z,99.90
2023-05-24T01:35:42.346Z,99.90
2023-05-24T01:38:12.821Z,99.90
2023-05-24T01:40:41.296Z,99.90
2023-05-24T01:43:33.859Z,99.90
2023-05-24T01:46:06.840Z,99.90
2023-05-24T01:49:21.425Z,99.90
2023-05-24T01:52:01.676Z,99.90
2023-05-24T01:54:34.080Z,99.90
2023-05-24T01:57:05.485Z,99.90
2023-05-24T01:59:33.936Z,99.90
2023-05-24T02:02:01.682Z,99.90
2023-05-24T02:04:28.752Z,99.90
2023-05-24T02:06:55.673Z,99.90
2023-05-24T02:09:22.589Z,99.90
2023-05-24T02:11:49.531Z,99.90
2023-05-24T02:14:17.478Z,99.90
2023-05-24T02:16:46.836Z,99.90
2023-05-24T02:19:14.576Z,99.90
2023-05-24T02:21:41.496Z,99.90
2023-05-24T02:24:11.348Z,99.90
2023-05-24T02:26:39.133Z,99.90
2023-05-24T02:29:06.186Z,99.90
2023-05-24T02:31:33.303Z,99.90
2023-05-24T02:34:00.355Z,99.90
2023-05-24T02:36:27.633Z,99.90
2023-05-24T02:38:54.558Z,99.90
2023-05-24T02:41:22.204Z,99.90
2023-05-24T02:43:49.151Z,99.90
2023-05-24T02:46:17.096Z,99.90
2023-05-24T02:48:44.042Z,99.90
2023-05-24T02:51:10.906Z,99.90
2023-05-24T02:53:37.792Z,99.90
2023-05-24T02:56:04.769Z,99.90
2023-05-24T02:58:31.641Z,99.90
2023-05-24T03:00:58.630Z,99.90
2023-05-24T03:03:25.875Z,99.90
2023-05-24T03:05:52.816Z,99.90
2023-05-24T03:08:19.746Z,99.90
2023-05-24T03:10:46.608Z,99.90
2023-05-24T03:13:13.506Z,99.90
2023-05-24T03:15:40.881Z,99.90
2023-05-24T03:18:07.802Z,99.90
2023-05-24T03:20:34.779Z,99.90
2023-05-24T03:23:01.759Z,99.90
2023-05-24T03:25:28.723Z,99.90
2023-05-24T03:27:55.580Z,99.90
2023-05-24T03:30:22.506Z,99.90
2023-05-24T03:32:49.453Z,99.90
2023-05-24T03:35:16.309Z,99.90
2023-05-24T03:37:43.204Z,99.90
2023-05-24T03:40:11.100Z,99.90
2023-05-24T03:42:38.433Z,99.90
2023-05-24T03:45:06.118Z,99.90
2023-05-24T03:47:33.023Z,99.90
2023-05-24T03:49:59.918Z,99.90
2023-05-24T03:52:26.874Z,99.90
2023-05-24T03:54:53.764Z,99.90
2023-05-24T03:57:20.773Z,99.90
2023-05-24T03:59:47.827Z,99.90
2023-05-24T04:02:14.816Z,99.90
2023-05-24T04:04:42.168Z,99.90
2023-05-24T04:07:12.044Z,99.90
2023-05-24T04:09:38.970Z,99.90
2023-05-24T04:12:06.170Z,99.90
2023-05-24T04:14:33.026Z,99.90
2023-05-24T04:17:00.034Z,99.90
2023-05-24T04:19:27.000Z,99.90
2023-05-24T04:21:53.914Z,99.90
2023-05-24T04:24:20.824Z,99.90
2023-05-24T04:26:47.889Z,99.90
2023-05-24T04:29:15.021Z,99.90
2023-05-24T04:31:44.851Z,99.90
2023-05-24T04:34:14.316Z,99.90
2023-05-24T04:36:41.619Z,99.90
2023-05-24T04:39:08.494Z,99.90
2023-05-24T04:41:38.769Z,99.90
2023-05-24T04:44:05.756Z,99.90
2023-05-24T04:46:35.483Z,99.90
2023-05-24T04:49:02.636Z,99.90
2023-05-24T04:51:29.602Z,99.90
2023-05-24T04:53:56.590Z,99.90
2023-05-24T04:56:23.738Z,99.90
2023-05-24T04:58:51.115Z,99.90
2023-05-24T05:01:18.436Z,99.90
2023-05-24T05:03:46.111Z,99.90
2023-05-24T05:06:13.793Z,99.90
2023-05-24T05:08:40.681Z,99.90
2023-05-24T05:11:07.758Z,99.90
2023-05-24T05:13:34.684Z,99.90
2023-05-24T05:16:02.391Z,99.90
2023-05-24T05:18:29.435Z,99.90
2023-05-24T05:20:57.455Z,99.90
2023-05-24T05:23:24.350Z,99.90
2023-05-24T05:25:51.265Z,99.90
2023-05-24T05:28:18.166Z,99.90
2023-05-24T05:30:45.130Z,99.90
2023-05-24T05:33:12.206Z,99.90
2023-05-24T05:35:39.282Z,99.90
2023-05-24T05:38:06.176Z,99.90
2023-05-24T05:40:33.096Z,99.90
2023-05-24T05:43:00.135Z,99.90
2023-05-24T05:45:27.175Z,99.90
2023-05-24T05:47:54.261Z,99.90
2023-05-24T05:50:21.240Z,99.90
2023-05-24T05:52:48.136Z,99.90
2023-05-24T05:55:15.001Z,99.90
2023-05-24T05:57:41.977Z,99.90
2023-05-24T06:00:09.794Z,99.90
2023-05-24T06:02:36.768Z,99.90
2023-05-24T06:05:03.935Z,99.90
2023-05-24T06:07:31.171Z,99.90
2023-05-24T06:09:58.086Z,99.90
2023-05-24T06:12:24.988Z,99.90
2023-05-24T06:14:52.430Z,99.90
2023-05-24T06:17:19.341Z,99.90
2023-05-24T06:19:46.281Z,99.90
2023-05-24T06:22:13.186Z,99.90
2023-05-24T06:24:40.099Z,99.90
2023-05-24T06:27:07.011Z,99.90
2023-05-24T06:29:33.969Z,99.90
2023-05-24T06:32:01.108Z,99.90
2023-05-24T06:34:29.798Z,99.90
2023-05-24T06:36:56.742Z,99.90
2023-05-24T06:39:25.281Z,99.90
2023-05-24T06:41:52.297Z,99.90
2023-05-24T06:44:19.298Z,99.90
2023-05-24T06:46:46.548Z,99.90
2023-05-24T06:49:13.504Z,99.90
2023-05-24T06:51:40.594Z,99.90
2023-05-24T06:54:08.038Z,99.90
2023-05-24T06:56:35.209Z,99.90
2023-05-24T06:59:02.180Z,99.90
2023-05-24T07:01:29.899Z,99.90
2023-05-24T07:03:57.051Z,99.90
2023-05-24T07:06:25.185Z,99.90
2023-05-24T07:08:52.073Z,99.90
2023-05-24T07:11:19.123Z,99.90
2023-05-24T07:13:46.299Z,99.90
2023-05-24T07:16:13.192Z,99.90
2023-05-24T07:18:41.843Z,99.90
2023-05-24T07:21:09.065Z,99.90
2023-05-24T07:23:37.644Z,99.90
2023-05-24T07:26:05.612Z,99.90
2023-05-24T07:28:33.076Z,99.90
2023-05-24T07:31:00.003Z,99.90
2023-05-24T07:33:26.987Z,99.90
2023-05-24T07:35:53.908Z,99.90
2023-05-24T07:38:21.225Z,99.90
2023-05-24T07:40:48.385Z,99.90
2023-05-24T07:43:15.670Z,99.90
2023-05-24T07:45:42.767Z,99.90
2023-05-24T07:48:09.936Z,99.90
2023-05-24T07:50:37.379Z,99.90
2023-05-24T07:53:05.455Z,99.90
2023-05-24T07:55:32.393Z,99.90
2023-05-24T07:57:59.304Z,99.90
2023-05-24T08:00:26.974Z,99.90
2023-05-24T08:02:54.055Z,99.90
2023-05-24T08:05:21.106Z,99.90
2023-05-24T08:07:48.214Z,99.90
2023-05-24T08:10:15.152Z,99.90
2023-05-24T08:12:42.972Z,99.90
2023-05-24T08:15:10.301Z,99.90
2023-05-24T08:17:40.712Z,99.90
2023-05-24T08:20:14.338Z,99.90
2023-05-24T08:22:42.510Z,99.90
2023-05-24T08:25:10.947Z,99.90
2023-05-24T08:27:37.922Z,99.90
2023-05-24T08:30:05.632Z,99.90
2023-05-24T08:32:32.576Z,99.90
2023-05-24T08:35:14.932Z,99.90
2023-05-24T08:37:46.285Z,99.90
2023-05-24T08:40:13.629Z,99.90
2023-05-24T08:42:41.787Z,99.90
2023-05-24T08:45:12.042Z,99.90
2023-05-24T08:47:39.711Z,99.90
2023-05-24T08:50:10.293Z,99.90
2023-05-24T08:52:38.432Z,99.90
2023-05-24T08:55:05.868Z,99.90
2023-05-24T08:57:34.873Z,99.90
2023-05-24T09:00:02.265Z,99.90
2023-05-24T09:02:31.573Z,99.90
2023-05-24T09:04:59.819Z,99.90
2023-05-24T09:07:27.727Z,99.90
2023-05-24T09:10:01.155Z,99.90
2023-05-24T09:12:37.466Z,99.90
2023-05-24T09:15:06.912Z,99.90
2023-05-24T09:17:36.422Z,99.90
2023-05-24T09:20:07.095Z,99.90
2023-05-24T09:22:40.300Z,99.90
2023-05-24T09:25:09.739Z,99.90
2023-05-24T09:27:37.694Z,99.90
2023-05-24T09:30:10.329Z,99.90
2023-05-24T09:32:38.132Z,99.90
2023-05-24T09:35:09.581Z,99.90
2023-05-24T09:37:38.816Z,99.90
2023-05-24T09:40:07.261Z,99.90
2023-05-24T09:42:34.423Z,99.90
2023-05-24T09:45:05.081Z,99.90
2023-05-24T09:47:33.606Z,99.90
2023-05-24T09:50:02.265Z,99.90
2023-05-24T09:52:29.334Z,99.90
2023-05-24T09:54:56.268Z,99.90
2023-05-24T09:57:23.138Z,99.90
2023-05-24T09:59:50.755Z,99.90
2023-05-24T10:02:20.739Z,99.90
2023-05-24T10:04:48.184Z,99.90
2023-05-24T10:07:16.487Z,99.90
2023-05-24T10:09:45.914Z,99.90
2023-05-24T10:12:12.807Z,99.90
2023-05-24T10:14:39.851Z,99.90
2023-05-24T10:17:07.878Z,99.90
2023-05-24T10:19:36.683Z,99.90
2023-05-24T10:22:08.538Z,99.90
2023-05-24T10:24:47.786Z,99.90
2023-05-24T10:27:18.470Z,99.90
2023-05-24T10:30:08.575Z,99.90
2023-05-24T10:32:39.308Z,99.90
2023-05-24T10:35:08.101Z,99.90
2023-05-24T10:37:35.978Z,99.90
2023-05-24T10:40:03.783Z,99.90
2023-05-24T10:42:33.910Z,99.90
2023-05-24T10:45:16.174Z,99.90
2023-05-24T10:47:43.256Z,99.90
2023-05-24T10:50:21.178Z,99.90
2023-05-24T10:52:51.410Z,99.90
2023-05-24T10:55:21.318Z,99.90
2023-05-24T10:57:48.233Z,99.90
2023-05-24T11:00:34.800Z,99.90
2023-05-24T11:03:10.944Z,99.90
2023-05-24T11:05:48.019Z,99.90
2023-05-24T11:08:15.337Z,99.90
2023-05-24T11:10:45.071Z,99.90
2023-05-24T11:13:12.200Z,99.90
2023-05-24T11:15:39.925Z,99.90
2023-05-24T11:18:09.909Z,99.90
2023-05-24T11:20:37.267Z,99.90
2023-05-24T11:23:05.411Z,99.90
2023-05-24T11:25:33.928Z,99.90
2023-05-24T11:28:02.124Z,99.90
2023-05-24T11:30:29.205Z,99.90
2023-05-24T11:32:57.309Z,99.90
2023-05-24T11:35:27.868Z,99.90
2023-05-24T11:37:54.981Z,99.90
2023-05-24T11:40:22.043Z,99.90
2023-05-24T11:42:49.906Z,99.40
2023-05-24T11:45:19.111Z,99.30
2023-05-24T11:47:46.316Z,99.90
2023-05-24T11:50:16.945Z,98.80
2023-05-24T11:52:44.217Z,98.00
2023-05-24T11:55:16.409Z,98.10
2023-05-24T11:57:50.718Z,98.50
2023-05-24T12:00:25.149Z,98.60
2023-05-24T12:02:54.712Z,98.00
2023-05-24T12:05:24.048Z,98.40
2023-05-24T12:08:06.082Z,98.30
2023-05-24T12:10:37.650Z,97.20
2023-05-24T12:13:05.252Z,97.80
2023-05-24T12:15:32.473Z,97.10
2023-05-24T12:18:00.331Z,96.70
2023-05-24T12:20:30.457Z,96.30
2023-05-24T12:22:57.432Z,96.10
2023-05-24T12:25:27.109Z,96.00
2023-05-24T12:27:56.298Z,95.90
2023-05-24T12:30:28.149Z,95.80
2023-05-24T12:32:55.756Z,96.50
2023-05-24T12:35:23.648Z,96.70
2023-05-24T12:37:50.645Z,96.50
2023-05-24T12:40:23.532Z,96.90
2023-05-24T12:42:51.833Z,97.10
2023-05-24T12:45:26.017Z,97.40
2023-05-24T12:47:57.642Z,97.40
2023-05-24T12:50:26.895Z,97.10
2023-05-24T12:52:54.091Z,96.80
2023-05-24T12:55:23.869Z,96.70
2023-05-24T12:57:54.161Z,95.90
2023-05-24T13:00:28.911Z,96.20
2023-05-24T13:02:58.892Z,95.90
2023-05-24T13:05:27.930Z,94.80
2023-05-24T13:07:59.294Z,94.90
2023-05-24T13:10:27.670Z,94.10
2023-05-24T13:12:54.638Z,93.70
2023-05-24T13:15:23.365Z,93.20
2023-05-24T13:17:50.697Z,93.00
2023-05-24T13:20:22.030Z,93.60
2023-05-24T13:22:49.605Z,93.30
2023-05-24T13:25:16.754Z,93.00
2023-05-24T13:27:43.699Z,93.30
2023-05-24T13:30:12.603Z,93.30
2023-05-24T13:32:41.199Z,92.90
2023-05-24T13:35:08.801Z,91.60
2023-05-24T13:37:35.853Z,90.30
2023-05-24T13:40:03.275Z,88.60
2023-05-24T13:42:30.299Z,87.10
2023-05-24T13:44:59.231Z,83.80
2023-05-24T13:47:38.677Z,84.70
2023-05-24T13:50:07.674Z,81.50
2023-05-24T13:52:34.965Z,80.00
2023-05-24T13:55:04.921Z,81.50
2023-05-24T13:57:49.791Z,83.30
2023-05-24T14:00:19.065Z,84.30
2023-05-24T14:02:46.110Z,81.30
2023-05-24T14:05:26.614Z,80.20
2023-05-24T14:07:54.257Z,79.60
2023-05-24T14:10:21.995Z,80.40
2023-05-24T14:13:03.493Z,82.70
2023-05-24T14:15:36.461Z,84.20
2023-05-24T14:18:08.009Z,86.30
2023-05-24T14:20:38.648Z,88.20
2023-05-24T14:23:07.250Z,88.60
2023-05-24T14:25:34.350Z,87.30
2023-05-24T14:28:01.552Z,87.30
2023-05-24T14:30:28.522Z,88.90
2023-05-24T14:32:55.730Z,90.00
2023-05-24T14:35:22.738Z,90.80
2023-05-24T14:37:49.738Z,90.60
2023-05-24T14:40:19.111Z,89.50
2023-05-24T14:42:47.007Z,87.50
2023-05-24T14:45:14.053Z,87.80
2023-05-24T14:47:41.051Z,88.50
2023-05-24T14:50:08.506Z,90.10
2023-05-24T14:52:35.531Z,90.60
2023-05-24T14:55:02.874Z,91.40
2023-05-24T14:57:29.829Z,91.40
2023-05-24T14:59:56.736Z,91.60
2023-05-24T15:02:23.716Z,91.90
2023-05-24T15:04:50.614Z,91.90
2023-05-24T15:07:17.822Z,91.70
2023-05-24T15:09:44.716Z,92.10
2023-05-24T15:12:11.662Z,92.40
2023-05-24T15:14:38.819Z,92.20
2023-05-24T15:17:05.900Z,92.70
2023-05-24T15:19:32.830Z,92.40
2023-05-24T15:22:00.005Z,92.40
2023-05-24T15:24:26.937Z,92.40
2023-05-24T15:26:53.855Z,92.30
2023-05-24T15:29:21.520Z,92.30
2023-05-24T15:31:48.452Z,92.30
2023-05-24T15:34:15.541Z,92.70
2023-05-24T15:36:42.682Z,92.40
2023-05-24T15:39:09.595Z,92.60
2023-05-24T15:41:37.875Z,92.20
2023-05-24T15:44:08.850Z,92.30
2023-05-24T15:46:39.259Z,92.10
2023-05-24T15:49:06.226Z,92.20
2023-05-24T15:52:02.847Z,92.10
2023-05-24T15:54:20.094Z,92.40
2023-05-24T15:56:47.021Z,92.20
2023-05-24T15:59:13.974Z,92.20
2023-05-24T16:01:41.701Z,92.30
2023-05-24T16:04:08.696Z,92.50
2023-05-24T16:06:36.727Z,92.30
2023-05-24T16:09:05.339Z,92.90
2023-05-24T16:11:32.344Z,93.20
2023-05-24T16:13:59.314Z,93.50
2023-05-24T16:16:26.394Z,93.20
2023-05-24T16:18:53.458Z,93.20
2023-05-24T16:21:20.436Z,93.30
2023-05-24T16:23:47.498Z,93.80
2023-05-24T16:26:14.435Z,94.20
2023-05-24T16:28:41.355Z,94.70
2023-05-24T16:31:08.286Z,94.50
2023-05-24T16:33:35.192Z,94.70
2023-05-24T16:36:04.500Z,94.80
2023-05-24T16:38:31.517Z,94.70
2023-05-24T16:40:58.458Z,94.60
2023-05-24T16:43:26.031Z,94.80
2023-05-24T16:45:53.133Z,95.30
2023-05-24T16:48:21.793Z,95.70
2023-05-24T16:50:50.431Z,95.70
2023-05-24T16:53:17.565Z,95.70
2023-05-24T16:55:44.596Z,95.80
2023-05-24T16:58:11.568Z,96.10
2023-05-24T17:00:38.451Z,96.50
2023-05-24T17:03:05.439Z,96.40
2023-05-24T17:05:32.408Z,96.50
2023-05-24T17:07:59.349Z,96.80
2023-05-24T17:10:26.269Z,96.70
2023-05-24T17:12:53.412Z,96.40
2023-05-24T17:15:20.546Z,96.10
2023-05-24T17:17:47.640Z,96.20
2023-05-24T17:20:14.894Z,96.30
2023-05-24T17:22:41.906Z,96.40
2023-05-24T17:25:09.027Z,96.70
2023-05-24T17:27:36.383Z,96.60
2023-05-24T17:30:03.428Z,96.80
2023-05-24T17:32:30.328Z,96.50
2023-05-24T17:34:57.675Z,96.60
2023-05-24T17:37:24.578Z,96.20
2023-05-24T17:39:52.651Z,96.60
2023-05-24T17:42:19.699Z,96.40
2023-05-24T17:44:47.525Z,96.30
2023-05-24T17:47:14.632Z,96.50
2023-05-24T17:49:41.922Z,96.50
2023-05-24T17:52:08.863Z,96.50
2023-05-24T17:54:35.815Z,96.80
2023-05-24T17:57:03.079Z,96.80
2023-05-24T17:59:30.032Z,97.00
2023-05-24T18:01:56.941Z,97.10
2023-05-24T18:04:23.971Z,97.50
2023-05-24T18:06:51.921Z,97.60
2023-05-24T18:09:18.831Z,98.00
2023-05-24T18:11:48.947Z,97.90
2023-05-24T18:14:15.877Z,98.00
2023-05-24T18:16:43.088Z,98.10
2023-05-24T18:19:10.089Z,98.40
2023-05-24T18:21:38.053Z,98.50
2023-05-24T18:24:05.106Z,98.80
2023-05-24T18:26:32.144Z,99.00
2023-05-24T18:28:59.060Z,99.00
2023-05-24T18:31:26.050Z,99.30
2023-05-24T18:33:53.040Z,99.40
2023-05-24T18:36:20.511Z,99.40
2023-05-24T18:38:47.522Z,99.50
2023-05-24T18:41:15.289Z,99.60
2023-05-24T18:43:43.190Z,99.70
2023-05-24T18:46:14.914Z,99.80
2023-05-24T18:48:42.578Z,99.90
2023-05-24T18:51:09.755Z,99.90
2023-05-24T18:53:36.746Z,99.90
2023-05-24T18:56:03.872Z,99.90
2023-05-24T18:58:31.213Z,99.90
2023-05-24T19:00:58.228Z,99.90
2023-05-24T19:03:25.343Z,99.90
2023-05-24T19:05:52.450Z,99.90
2023-05-24T19:08:19.467Z,99.90
2023-05-24T19:10:46.426Z,99.90
2023-05-24T19:13:15.135Z,99.90
2023-05-24T19:15:42.379Z,99.90
2023-05-24T19:18:09.557Z,99.90
2023-05-24T19:20:36.768Z,99.90
2023-05-24T19:23:04.031Z,99.90
2023-05-24T19:25:31.496Z,99.90
2023-05-24T19:28:00.449Z,99.90
2023-05-24T19:30:27.901Z,99.90
2023-05-24T19:32:54.957Z,99.90
2023-05-24T19:35:22.014Z,99.90
2023-05-24T19:37:48.963Z,99.90
2023-05-24T19:40:16.283Z,99.90
2023-05-24T19:42:43.172Z,99.90
2023-05-24T19:45:10.565Z,99.90
2023-05-24T19:47:37.569Z,99.90
2023-05-24T19:50:04.827Z,99.90
2023-05-24T19:52:31.788Z,99.90
2023-05-24T19:54:58.780Z,99.90
2023-05-24T19:57:26.497Z,99.90
2023-05-24T19:59:53.461Z,99.90
2023-05-24T20:02:20.424Z,99.90
2023-05-24T20:04:47.366Z,99.90
2023-05-24T20:07:14.809Z,99.90
2023-05-24T20:09:41.949Z,99.90
2023-05-24T20:12:08.982Z,99.90
2023-05-24T20:14:36.018Z,99.90
2023-05-24T20:17:04.230Z,99.90
2023-05-24T20:19:31.112Z,99.90
2023-05-24T20:21:58.335Z,99.90
2023-05-24T20:24:25.221Z,99.90
2023-05-24T20:26:52.119Z,99.90
2023-05-24T20:29:19.022Z,99.90
2023-05-24T20:31:47.163Z,99.90
2023-05-24T20:34:14.159Z,99.90
2023-05-24T20:36:43.499Z,99.90
2023-05-24T20:39:10.835Z,99.90
2023-05-24T20:41:37.729Z,99.90
2023-05-24T20:44:04.659Z,99.90
2023-05-24T20:46:31.789Z,99.90
2023-05-24T20:48:58.796Z,99.90
2023-05-24T20:51:25.770Z,99.90
2023-05-24T20:53:53.401Z,99.90
2023-05-24T20:56:23.049Z,99.90
2023-05-24T20:58:53.029Z,99.90
2023-05-24T21:01:21.050Z,99.90
2023-05-24T21:03:48.091Z,99.90
2023-05-24T21:06:15.200Z,99.90
2023-05-24T21:08:43.114Z,99.90
2023-05-24T21:11:10.010Z,99.90
2023-05-24T21:13:36.994Z,99.90
2023-05-24T21:16:04.181Z,99.90
2023-05-24T21:18:31.660Z,99.90
2023-05-24T21:20:58.581Z,99.90
2023-05-24T21:23:25.587Z,99.90
2023-05-24T21:25:52.501Z,99.90
2023-05-24T21:28:19.361Z,99.90
2023-05-24T21:30:46.317Z,99.90
2023-05-24T21:33:13.285Z,99.90
2023-05-24T21:35:40.359Z,99.90
2023-05-24T21:38:07.338Z,99.90
2023-05-24T21:40:34.303Z,99.90
2023-05-24T21:43:01.169Z,99.90
2023-05-24T21:45:28.246Z,99.90
2023-05-24T21:47:55.213Z,99.90
2023-05-24T21:50:22.321Z,99.90
2023-05-24T21:52:49.287Z,99.90
2023-05-24T21:55:16.215Z,99.90
2023-05-24T21:57:43.141Z,99.90
2023-05-24T22:00:11.974Z,99.90
2023-05-24T22:02:38.999Z,99.90
2023-05-24T22:05:06.336Z,99.90
2023-05-24T22:07:33.312Z,99.90
2023-05-24T22:10:00.253Z,99.90
2023-05-24T22:12:27.169Z,99.90
2023-05-24T22:14:54.110Z,99.90
2023-05-24T22:17:22.150Z,99.90
2023-05-24T22:19:49.484Z,99.90
2023-05-24T22:22:19.712Z,99.90
2023-05-24T22:24:47.333Z,99.90
2023-05-24T22:27:14.274Z,99.90
2023-05-24T22:29:41.310Z,99.90
2023-05-24T22:32:08.335Z,99.90
2023-05-24T22:34:35.540Z,99.90
2023-05-24T22:37:02.456Z,99.90
2023-05-24T22:39:29.388Z,99.90
2023-05-24T22:41:56.336Z,99.90
2023-05-24T22:44:23.392Z,99.90
2023-05-24T22:46:53.773Z,99.90
2023-05-24T22:49:21.274Z,99.90
2023-05-24T22:51:50.506Z,99.90
2023-05-24T22:54:17.950Z,99.90
2023-05-24T22:56:46.306Z,99.90
2023-05-24T22:59:13.262Z,99.90
2023-05-24T23:01:40.257Z,99.90
2023-05-24T23:06:39.100Z,99.90
2023-05-24T23:09:06.040Z,99.90
2023-05-24T23:11:33.029Z,99.90
2023-05-24T23:14:00.266Z,99.90
2023-05-24T23:16:28.955Z,99.90
2023-05-24T23:18:57.435Z,99.90
2023-05-24T23:21:24.912Z,99.90
2023-05-24T23:23:52.841Z,99.90
2023-05-24T23:26:19.906Z,99.90
2023-05-24T23:28:46.824Z,99.90
2023-05-24T23:31:14.026Z,99.90
2023-05-24T23:33:40.939Z,99.90
2023-05-24T23:36:09.930Z,99.90
2023-05-24T23:38:37.286Z,99.90
2023-05-24T23:41:04.156Z,99.90
2023-05-24T23:43:31.251Z,99.90
2023-05-24T23:45:58.171Z,99.90
2023-05-24T23:48:25.051Z,99.90
2023-05-24T23:50:54.541Z,99.90
2023-05-24T23:53:21.864Z,99.90
2023-05-24T23:55:48.828Z,99.90
2023-05-24T23:58:15.940Z,99.90
